< < Back
Terminal Aerodrome Forecast


Current Version              Previous Versions:   1  2  3  4  5  6  7  8  9  

Terminal Aerodrome Forecast

758
FTUS42 KCAE 232300
TAFCAE
TAF
KCAE 232327Z 2400/2424 00000KT P6SM SCT200
     FM241500 VRB04KT P6SM BKN200=

Latest METAR

691
SAUS80 KWBC 241000
MTRCAE
METAR KCAE 240956Z 25005KT 10SM CLR 08/06 A3004 RMK AO2 SLP170
T00830061


USA.gov is the U.S. government's official web portal to all federal, state and local government web resources and services.